createdAt,value
2022-08-19T00:01:11.370Z,20.66
2022-08-19T00:03:14.047Z,20.79
2022-08-19T00:05:17.416Z,20.76
2022-08-19T00:07:20.367Z,20.85
2022-08-19T00:09:24.794Z,20.78
2022-08-19T00:11:28.508Z,20.83
2022-08-19T00:13:31.198Z,20.85
2022-08-19T00:15:35.378Z,20.77
2022-08-19T00:17:38.056Z,20.80
2022-08-19T00:19:44.799Z,20.52
2022-08-19T00:21:47.492Z,20.61
2022-08-19T00:23:50.139Z,20.62
2022-08-19T00:25:52.982Z,20.51
2022-08-19T00:27:55.756Z,20.51
2022-08-19T00:29:59.821Z,20.52
2022-08-19T00:32:04.202Z,20.58
2022-08-19T00:34:07.305Z,20.63
2022-08-19T00:36:11.378Z,20.51
2022-08-19T00:38:14.043Z,20.40
2022-08-19T00:40:19.193Z,20.29
2022-08-19T00:42:23.659Z,20.39
2022-08-19T00:44:28.976Z,20.42
2022-08-19T00:46:33.525Z,20.55
2022-08-19T00:48:38.101Z,20.49
2022-08-19T00:50:52.048Z,20.55
2022-08-19T00:52:55.689Z,20.53
2022-08-19T00:54:59.882Z,20.46
2022-08-19T00:57:04.831Z,20.40
2022-08-19T00:59:09.851Z,20.48
2022-08-19T01:01:12.931Z,20.36
2022-08-19T01:03:20.244Z,20.39
2022-08-19T01:05:28.357Z,20.33
2022-08-19T01:07:35.974Z,20.24
2022-08-19T01:09:41.122Z,20.20
2022-08-19T01:11:46.385Z,20.31
2022-08-19T01:13:50.183Z,20.09
2022-08-19T01:16:00.589Z,20.19
2022-08-19T01:18:08.274Z,20.36
2022-08-19T01:20:14.180Z,20.30
2022-08-19T01:22:31.438Z,20.28
2022-08-19T01:24:37.100Z,20.31
2022-08-19T01:26:53.984Z,20.34
2022-08-19T01:29:01.878Z,20.40
2022-08-19T01:31:08.220Z,20.32
2022-08-19T01:33:11.060Z,20.27
2022-08-19T01:35:19.086Z,20.37
2022-08-19T01:37:24.970Z,20.25
2022-08-19T01:39:30.316Z,20.18
2022-08-19T01:41:34.572Z,20.17
2022-08-19T01:43:37.386Z,20.32
2022-08-19T01:46:00.457Z,20.28
2022-08-19T01:48:03.263Z,20.18
2022-08-19T01:50:08.150Z,20.21
2022-08-19T01:52:10.882Z,20.31
2022-08-19T01:54:23.389Z,20.19
2022-08-19T01:56:30.468Z,20.24
2022-08-19T01:58:42.571Z,20.30
2022-08-19T02:00:46.160Z,20.25
2022-08-19T02:02:48.881Z,20.22
2022-08-19T02:04:51.677Z,20.21
2022-08-19T02:06:54.369Z,20.21
2022-08-19T02:08:57.975Z,20.15
2022-08-19T02:11:00.667Z,20.13
2022-08-19T02:13:03.997Z,20.14
2022-08-19T02:15:09.502Z,20.14
2022-08-19T02:17:12.184Z,20.11
2022-08-19T02:19:15.819Z,20.16
2022-08-19T02:21:18.935Z,20.04
2022-08-19T02:23:21.707Z,20.04
2022-08-19T02:25:24.417Z,20.14
2022-08-19T02:27:27.508Z,20.04
2022-08-19T02:29:30.238Z,19.98
2022-08-19T02:31:34.319Z,19.89
2022-08-19T02:33:36.971Z,19.89
2022-08-19T02:35:43.213Z,20.07
2022-08-19T02:38:03.994Z,19.97
2022-08-19T02:40:12.504Z,19.87
2022-08-19T02:42:15.506Z,19.94
2022-08-19T02:44:29.662Z,19.98
2022-08-19T02:46:35.387Z,19.91
2022-08-19T02:48:38.091Z,19.91
2022-08-19T02:50:41.561Z,19.85
2022-08-19T02:52:56.530Z,19.90
2022-08-19T02:54:59.249Z,19.92
2022-08-19T02:57:02.014Z,19.73
2022-08-19T02:59:12.784Z,19.86
2022-08-19T03:01:23.542Z,19.63
2022-08-19T03:03:28.054Z,19.91
2022-08-19T03:05:47.902Z,19.69
2022-08-19T03:07:53.950Z,19.72
2022-08-19T03:09:56.596Z,19.57
2022-08-19T03:11:59.329Z,19.68
2022-08-19T03:14:04.572Z,19.51
2022-08-19T03:16:07.778Z,19.57
2022-08-19T03:18:10.561Z,19.46
2022-08-19T03:20:16.991Z,19.55
2022-08-19T03:22:19.635Z,19.48
2022-08-19T03:24:23.504Z,19.53
2022-08-19T03:26:26.321Z,19.34
2022-08-19T03:28:29.353Z,19.37
2022-08-19T03:30:32.515Z,19.34
2022-08-19T03:32:36.312Z,19.31
2022-08-19T03:34:48.046Z,19.46
2022-08-19T03:36:52.157Z,19.46
2022-08-19T03:38:59.799Z,19.38
2022-08-19T03:41:07.263Z,19.49
2022-08-19T03:43:09.981Z,19.48
2022-08-19T03:45:12.662Z,19.56
2022-08-19T03:47:17.463Z,19.49
2022-08-19T03:49:21.571Z,19.43
2022-08-19T03:51:33.688Z,19.61
2022-08-19T03:53:37.884Z,19.52
2022-08-19T03:55:42.588Z,19.48
2022-08-19T03:57:46.038Z,19.45
2022-08-19T03:59:48.768Z,19.48
2022-08-19T04:01:51.425Z,19.24
2022-08-19T04:03:54.959Z,19.29
2022-08-19T04:05:58.433Z,19.36
2022-08-19T04:08:01.516Z,19.34
2022-08-19T04:10:06.995Z,19.22
2022-08-19T04:12:13.385Z,19.29
2022-08-19T04:14:19.529Z,19.30
2022-08-19T04:16:23.734Z,19.29
2022-08-19T04:18:39.910Z,19.18
2022-08-19T04:20:47.657Z,19.23
2022-08-19T04:22:50.476Z,19.28
2022-08-19T04:24:53.146Z,19.34
2022-08-19T04:26:57.220Z,19.20
2022-08-19T04:29:00.227Z,19.21
2022-08-19T04:31:02.918Z,19.08
2022-08-19T04:33:05.583Z,19.21
2022-08-19T04:35:17.705Z,19.37
2022-08-19T04:37:21.994Z,19.41
2022-08-19T04:39:48.079Z,19.17
2022-08-19T04:42:08.843Z,19.18
2022-08-19T04:44:14.732Z,19.23
2022-08-19T04:46:28.540Z,19.41
2022-08-19T04:48:49.562Z,19.40
2022-08-19T04:50:53.335Z,19.35
2022-08-19T04:52:57.013Z,19.28
2022-08-19T04:54:59.859Z,19.32
2022-08-19T04:57:02.503Z,19.36
2022-08-19T04:59:05.621Z,19.31
2022-08-19T05:01:11.239Z,19.38
2022-08-19T05:03:14.031Z,19.39
2022-08-19T05:05:16.884Z,19.46
2022-08-19T05:07:19.799Z,19.40
2022-08-19T05:09:22.720Z,19.30
2022-08-19T05:11:29.331Z,19.23
2022-08-19T05:13:32.350Z,19.25
2022-08-19T05:15:35.698Z,19.22
2022-08-19T05:17:59.802Z,19.37
2022-08-19T05:20:20.524Z,19.35
2022-08-19T05:22:36.439Z,19.41
2022-08-19T05:24:56.422Z,19.27
2022-08-19T05:27:03.518Z,19.47
2022-08-19T05:29:08.296Z,19.32
2022-08-19T05:31:13.562Z,19.35
2022-08-19T05:33:17.560Z,19.31
2022-08-19T05:35:20.356Z,19.33
2022-08-19T05:37:23.454Z,19.40
2022-08-19T05:39:29.042Z,19.38
2022-08-19T05:41:32.044Z,19.41
2022-08-19T05:43:34.760Z,19.41
2022-08-19T05:45:40.824Z,19.27
2022-08-19T05:47:43.529Z,19.41
2022-08-19T05:49:47.610Z,19.24
2022-08-19T05:51:51.208Z,19.37
2022-08-19T05:53:53.953Z,19.27
2022-08-19T05:55:56.591Z,19.39
2022-08-19T05:58:02.652Z,19.55
2022-08-19T06:00:10.339Z,19.59
2022-08-19T06:02:14.379Z,19.46
2022-08-19T06:04:17.892Z,19.46
2022-08-19T06:06:22.817Z,19.54
2022-08-19T06:08:33.774Z,19.77
2022-08-19T06:10:37.880Z,19.69
2022-08-19T06:12:40.591Z,19.50
2022-08-19T06:14:43.439Z,19.54
2022-08-19T06:16:47.199Z,19.29
2022-08-19T06:18:52.369Z,19.41
2022-08-19T06:20:56.256Z,19.56
2022-08-19T06:23:00.539Z,19.57
2022-08-19T06:25:04.951Z,19.44
2022-08-19T06:27:07.653Z,19.21
2022-08-19T06:29:12.300Z,19.27
2022-08-19T06:31:29.573Z,19.09
2022-08-19T06:33:32.363Z,19.10
2022-08-19T06:35:40.941Z,19.09
2022-08-19T06:37:43.937Z,19.11
2022-08-19T06:39:48.233Z,19.02
2022-08-19T06:41:55.567Z,19.12
2022-08-19T06:44:01.025Z,19.08
2022-08-19T06:46:04.615Z,18.98
2022-08-19T06:48:09.074Z,18.86
2022-08-19T06:50:15.132Z,18.90
2022-08-19T06:52:19.521Z,18.74
2022-08-19T06:54:22.451Z,18.96
2022-08-19T06:56:35.499Z,18.81
2022-08-19T06:58:39.087Z,19.00
2022-08-19T07:00:42.092Z,18.97
2022-08-19T07:02:49.790Z,18.97
2022-08-19T07:05:02.209Z,19.16
2022-08-19T07:07:19.684Z,19.18
2022-08-19T07:09:23.910Z,19.19
2022-08-19T07:11:28.364Z,19.28
2022-08-19T07:13:37.295Z,19.36
2022-08-19T07:15:40.022Z,19.21
2022-08-19T07:17:44.218Z,19.32
2022-08-19T07:19:47.436Z,19.25
2022-08-19T07:21:53.686Z,19.10
2022-08-19T07:23:57.579Z,19.33
2022-08-19T07:26:00.713Z,19.19
2022-08-19T07:28:05.260Z,19.04
2022-08-19T07:30:11.763Z,19.22
2022-08-19T07:32:15.066Z,19.31
2022-08-19T07:34:18.504Z,19.37
2022-08-19T07:36:24.248Z,19.36
2022-08-19T07:38:28.776Z,19.26
2022-08-19T07:40:32.399Z,19.29
2022-08-19T07:42:35.142Z,19.30
2022-08-19T07:46:47.262Z,19.01
2022-08-19T07:48:53.187Z,19.07
2022-08-19T07:50:57.881Z,18.97
2022-08-19T07:53:00.598Z,19.04
2022-08-19T07:55:04.854Z,18.94
2022-08-19T07:57:07.997Z,18.92
2022-08-19T07:59:10.900Z,18.76
2022-08-19T08:01:17.986Z,18.78
2022-08-19T08:03:44.444Z,18.74
2022-08-19T08:06:05.332Z,18.70
2022-08-19T08:08:37.205Z,18.59
2022-08-19T08:10:48.716Z,18.41
2022-08-19T08:13:09.446Z,18.36
2022-08-19T08:15:19.641Z,18.29
2022-08-19T08:17:31.067Z,18.37
2022-08-19T08:19:51.478Z,18.37
2022-08-19T08:21:55.836Z,18.65
2022-08-19T08:23:57.609Z,18.61
2022-08-19T08:26:01.215Z,18.45
2022-08-19T08:28:05.981Z,18.50
2022-08-19T08:30:10.808Z,18.53
2022-08-19T08:32:14.246Z,18.50
2022-08-19T08:34:19.112Z,18.54
2022-08-19T08:36:21.850Z,18.57
2022-08-19T08:38:24.771Z,18.76
2022-08-19T08:40:35.416Z,18.52
2022-08-19T08:42:48.537Z,18.48
2022-08-19T08:47:13.392Z,18.77
2022-08-19T08:49:28.879Z,18.87
2022-08-19T08:51:35.817Z,18.86
2022-08-19T08:53:41.981Z,19.22
2022-08-19T08:55:46.424Z,19.29
2022-08-19T08:57:57.744Z,19.08
2022-08-19T09:00:06.628Z,19.43
2022-08-19T09:02:18.269Z,19.37
2022-08-19T09:04:23.484Z,19.38
2022-08-19T09:06:34.063Z,19.40
2022-08-19T09:08:46.719Z,19.23
2022-08-19T09:10:55.236Z,19.47
2022-08-19T09:13:12.633Z,19.53
2022-08-19T09:15:18.357Z,19.38
2022-08-19T09:17:29.030Z,19.47
2022-08-19T09:19:33.125Z,19.38
2022-08-19T09:21:36.344Z,19.22
2022-08-19T09:23:41.418Z,19.13
2022-08-19T09:25:44.173Z,19.32
2022-08-19T09:27:47.647Z,19.26
2022-08-19T09:29:50.440Z,19.19
2022-08-19T09:31:53.342Z,19.33
2022-08-19T09:33:58.138Z,19.10
2022-08-19T09:36:08.742Z,19.09
2022-08-19T09:38:11.607Z,19.13
2022-08-19T09:40:15.399Z,19.04
2022-08-19T09:42:29.925Z,19.20
2022-08-19T09:44:34.697Z,19.05
2022-08-19T09:46:37.394Z,19.08
2022-08-19T09:48:40.750Z,19.04
2022-08-19T09:50:51.966Z,19.03
2022-08-19T09:52:57.979Z,19.24
2022-08-19T09:55:01.032Z,19.12
2022-08-19T09:57:10.151Z,18.94
2022-08-19T09:59:13.403Z,19.09
2022-08-19T10:01:21.144Z,19.13
2022-08-19T10:03:25.397Z,19.05
2022-08-19T10:05:48.641Z,19.08
2022-08-19T10:07:52.366Z,19.12
2022-08-19T10:09:56.397Z,19.11
2022-08-19T10:12:02.674Z,19.13
2022-08-19T10:14:07.531Z,19.31
2022-08-19T10:16:13.630Z,19.23
2022-08-19T10:18:18.669Z,19.29
2022-08-19T10:20:22.777Z,19.16
2022-08-19T10:22:26.237Z,19.41
2022-08-19T10:24:29.524Z,19.38
2022-08-19T10:26:37.168Z,19.40
2022-08-19T10:28:40.379Z,19.26
2022-08-19T10:30:45.498Z,19.30
2022-08-19T10:32:48.525Z,19.54
2022-08-19T10:34:52.828Z,19.54
2022-08-19T10:37:02.253Z,19.48
2022-08-19T10:39:08.295Z,19.80
2022-08-19T10:41:14.843Z,19.79
2022-08-19T10:43:18.969Z,19.90
2022-08-19T10:45:23.125Z,19.85
2022-08-19T10:47:31.507Z,19.93
2022-08-19T10:49:54.728Z,19.94
2022-08-19T10:52:18.775Z,20.08
2022-08-19T10:54:31.078Z,20.26
2022-08-19T10:56:53.901Z,20.07
2022-08-19T10:58:58.874Z,20.03
2022-08-19T11:01:01.699Z,20.18
2022-08-19T11:03:04.537Z,20.18
2022-08-19T11:05:13.572Z,20.16
2022-08-19T11:07:16.407Z,20.22
2022-08-19T11:09:21.684Z,19.90
2022-08-19T11:11:24.829Z,19.95
2022-08-19T11:13:27.943Z,20.03
2022-08-19T11:15:34.375Z,19.87
2022-08-19T11:17:41.402Z,19.87
2022-08-19T11:19:44.208Z,19.67
2022-08-19T11:21:49.579Z,19.76
2022-08-19T11:23:58.782Z,19.69
2022-08-19T11:26:03.706Z,19.67
2022-08-19T11:28:07.001Z,19.67
2022-08-19T11:30:13.195Z,19.60
2022-08-19T11:32:17.820Z,19.67
2022-08-19T11:34:24.741Z,19.84
2022-08-19T11:36:29.328Z,19.73
2022-08-19T11:38:32.815Z,19.92
2022-08-19T11:40:35.505Z,19.97
2022-08-19T11:42:55.632Z,20.24
2022-08-19T11:44:58.501Z,20.05
2022-08-19T11:47:09.147Z,20.33
2022-08-19T11:49:14.365Z,20.30
2022-08-19T11:51:22.420Z,20.34
2022-08-19T11:53:25.946Z,20.28
2022-08-19T11:55:28.714Z,20.17
2022-08-19T11:57:31.414Z,20.22
2022-08-19T11:59:34.134Z,20.39
2022-08-19T12:01:36.867Z,20.33
2022-08-19T12:03:40.355Z,20.27
2022-08-19T12:05:44.536Z,20.42
2022-08-19T12:07:47.289Z,20.42
2022-08-19T12:09:50.144Z,20.52
2022-08-19T12:11:53.052Z,20.42
2022-08-19T12:13:55.947Z,20.63
2022-08-19T12:15:59.178Z,20.43
2022-08-19T12:18:01.941Z,20.37
2022-08-19T12:20:07.587Z,20.37
2022-08-19T12:22:11.791Z,20.08
2022-08-19T12:24:14.911Z,19.90
2022-08-19T12:26:19.411Z,19.83
2022-08-19T12:28:23.835Z,19.86
2022-08-19T12:30:27.978Z,19.89
2022-08-19T12:32:30.941Z,20.02
2022-08-19T12:34:34.861Z,20.05
2022-08-19T12:36:37.646Z,19.96
2022-08-19T12:38:42.767Z,19.78
2022-08-19T12:40:48.468Z,19.84
2022-08-19T12:42:52.076Z,19.70
2022-08-19T12:44:56.146Z,19.81
2022-08-19T12:46:59.829Z,19.86
2022-08-19T12:49:06.226Z,19.86
2022-08-19T12:51:28.022Z,19.95
2022-08-19T12:53:31.139Z,19.95
2022-08-19T12:55:35.768Z,19.91
2022-08-19T12:57:41.220Z,20.00
2022-08-19T12:59:44.694Z,20.17
2022-08-19T13:01:48.011Z,20.07
2022-08-19T13:03:51.100Z,20.24
2022-08-19T13:05:54.097Z,20.03
2022-08-19T13:08:01.794Z,20.15
2022-08-19T13:10:08.026Z,20.31
2022-08-19T13:12:14.065Z,20.26
2022-08-19T13:14:16.996Z,20.15
2022-08-19T13:16:23.524Z,20.24
2022-08-19T13:18:27.507Z,20.04
2022-08-19T13:20:31.019Z,19.72
2022-08-19T13:22:34.523Z,19.62
2022-08-19T13:24:42.920Z,19.71
2022-08-19T13:26:52.155Z,19.76
2022-08-19T13:29:15.271Z,19.68
2022-08-19T13:31:37.125Z,19.76
2022-08-19T13:33:40.016Z,19.84
2022-08-19T13:35:44.720Z,19.57
2022-08-19T13:37:47.674Z,19.52
2022-08-19T13:39:50.701Z,19.59
2022-08-19T13:41:53.636Z,19.46
2022-08-19T13:43:57.973Z,19.50
2022-08-19T13:46:01.505Z,19.39
2022-08-19T13:48:08.094Z,19.35
2022-08-19T13:50:12.823Z,19.39
2022-08-19T13:52:15.696Z,19.40
2022-08-19T13:54:19.185Z,19.29
2022-08-19T13:56:26.014Z,19.29
2022-08-19T13:58:32.591Z,19.20
2022-08-19T14:00:39.725Z,19.14
2022-08-19T14:02:44.186Z,19.22
2022-08-19T14:04:48.305Z,19.20
2022-08-19T14:06:54.486Z,19.31
2022-08-19T14:08:57.730Z,19.30
2022-08-19T14:11:06.381Z,19.27
2022-08-19T14:13:10.042Z,19.10
2022-08-19T14:15:14.103Z,19.05
2022-08-19T14:17:19.950Z,19.09
2022-08-19T14:19:24.447Z,19.18
2022-08-19T14:21:37.523Z,19.08
2022-08-19T14:23:43.899Z,19.02
2022-08-19T14:25:47.420Z,19.13
2022-08-19T14:27:51.017Z,19.10
2022-08-19T14:29:56.086Z,18.96
2022-08-19T14:31:59.944Z,18.86
2022-08-19T14:34:04.865Z,18.91
2022-08-19T14:36:16.781Z,18.93
2022-08-19T14:38:28.242Z,18.90
2022-08-19T14:40:35.652Z,19.09
2022-08-19T14:42:39.109Z,19.02
2022-08-19T14:44:42.241Z,19.24
2022-08-19T14:46:50.497Z,19.31
2022-08-19T14:48:55.425Z,19.36
2022-08-19T14:51:00.567Z,19.32
2022-08-19T14:53:08.128Z,19.50
2022-08-19T14:55:19.245Z,19.54
2022-08-19T14:57:24.541Z,19.56
2022-08-19T14:59:27.553Z,19.52
2022-08-19T15:01:30.544Z,19.43
2022-08-19T15:03:34.548Z,19.43
2022-08-19T15:05:37.773Z,19.61
2022-08-19T15:07:42.876Z,19.61
2022-08-19T15:09:46.604Z,19.70
2022-08-19T15:11:52.486Z,19.75
2022-08-19T15:13:57.069Z,19.72
2022-08-19T15:15:59.934Z,19.82
2022-08-19T15:18:03.543Z,19.69
2022-08-19T15:20:07.603Z,19.67
2022-08-19T15:22:10.510Z,19.91
2022-08-19T15:24:14.630Z,19.96
2022-08-19T15:26:18.715Z,20.02
2022-08-19T15:28:21.621Z,20.21
2022-08-19T15:30:28.086Z,20.29
2022-08-19T15:32:32.542Z,20.54
2022-08-19T15:34:35.541Z,20.55
2022-08-19T15:36:42.061Z,20.55
2022-08-19T15:38:47.231Z,20.65
2022-08-19T15:40:52.874Z,20.88
2022-08-19T15:42:55.715Z,20.67
2022-08-19T15:45:00.787Z,20.80
2022-08-19T15:47:04.773Z,20.69
2022-08-19T15:49:08.172Z,20.64
2022-08-19T15:51:10.855Z,20.57
2022-08-19T15:53:13.889Z,20.70
2022-08-19T15:55:33.820Z,20.66
2022-08-19T15:57:56.168Z,20.69
2022-08-19T16:00:16.415Z,20.83
2022-08-19T16:02:39.190Z,20.80
2022-08-19T16:04:59.599Z,20.97
2022-08-19T16:07:03.678Z,20.90
2022-08-19T16:09:06.452Z,20.72
2022-08-19T16:11:09.147Z,20.82
2022-08-19T16:13:13.194Z,20.69
2022-08-19T16:15:15.935Z,20.74
2022-08-19T16:17:18.600Z,20.60
2022-08-19T16:19:21.311Z,20.53
2022-08-19T16:21:26.105Z,20.49
2022-08-19T16:23:29.199Z,20.64
2022-08-19T16:25:32.047Z,20.78
2022-08-19T16:27:35.164Z,20.80
2022-08-19T16:29:39.685Z,20.75
2022-08-19T16:31:44.394Z,20.49
2022-08-19T16:33:47.058Z,20.46
2022-08-19T16:35:56.093Z,20.38
2022-08-19T16:38:03.659Z,20.42
2022-08-19T16:40:09.390Z,20.26
2022-08-19T16:42:13.929Z,20.07
2022-08-19T16:44:17.733Z,19.98
2022-08-19T16:46:22.783Z,19.95
2022-08-19T16:48:29.754Z,20.06
2022-08-19T16:50:48.703Z,19.96
2022-08-19T16:52:51.723Z,20.01
2022-08-19T16:54:54.928Z,19.78
2022-08-19T16:56:57.573Z,19.79
2022-08-19T16:59:00.593Z,19.81
2022-08-19T17:01:07.897Z,19.86
2022-08-19T17:03:15.073Z,19.62
2022-08-19T17:05:18.826Z,19.70
2022-08-19T17:07:21.532Z,19.66
2022-08-19T17:09:25.828Z,19.69
2022-08-19T17:11:31.590Z,19.75
2022-08-19T17:13:34.720Z,19.74
2022-08-19T17:15:37.377Z,19.72
2022-08-19T17:17:40.030Z,19.57
2022-08-19T17:19:44.553Z,19.60
2022-08-19T17:21:47.212Z,19.63
2022-08-19T17:23:50.441Z,19.46
2022-08-19T17:25:53.384Z,19.44
2022-08-19T17:27:56.485Z,19.55
2022-08-19T17:30:00.181Z,19.50
2022-08-19T17:32:03.305Z,19.50
2022-08-19T17:34:06.953Z,19.52
2022-08-19T17:36:13.646Z,19.46
2022-08-19T17:38:19.042Z,19.59
2022-08-19T17:40:23.888Z,19.48
2022-08-19T17:42:26.889Z,19.52
2022-08-19T17:44:29.510Z,19.56
2022-08-19T17:46:32.317Z,19.58
2022-08-19T17:48:38.741Z,19.42
2022-08-19T17:50:41.645Z,19.49
2022-08-19T17:52:45.809Z,19.47
2022-08-19T17:54:48.540Z,19.42
2022-08-19T17:56:51.448Z,19.49
2022-08-19T17:59:00.397Z,19.60
2022-08-19T18:01:05.131Z,19.57
2022-08-19T18:03:08.495Z,19.50
2022-08-19T18:05:15.460Z,19.49
2022-08-19T18:07:21.514Z,19.45
2022-08-19T18:09:27.856Z,19.41
2022-08-19T18:11:30.636Z,19.38
2022-08-19T18:13:33.398Z,19.37
2022-08-19T18:15:36.156Z,19.19
2022-08-19T18:17:42.016Z,19.16
2022-08-19T18:19:46.052Z,19.18
2022-08-19T18:21:48.867Z,19.29
2022-08-19T18:23:51.544Z,19.30
2022-08-19T18:26:06.260Z,19.09
2022-08-19T18:28:08.930Z,19.02
2022-08-19T18:30:13.428Z,19.09
2022-08-19T18:32:18.150Z,19.09
2022-08-19T18:34:26.988Z,19.22
2022-08-19T18:36:52.483Z,19.23
2022-08-19T18:39:09.913Z,19.11
2022-08-19T18:41:33.919Z,19.00
2022-08-19T18:43:54.372Z,19.01
2022-08-19T18:46:14.776Z,19.04
2022-08-19T18:48:35.071Z,19.03
2022-08-19T18:50:40.405Z,19.08
2022-08-19T18:52:43.115Z,18.94
2022-08-19T18:54:47.135Z,19.00
2022-08-19T18:56:55.555Z,18.94
2022-08-19T18:58:58.741Z,18.93
2022-08-19T19:01:10.520Z,18.96
2022-08-19T19:03:13.242Z,18.91
2022-08-19T19:05:16.254Z,18.97
2022-08-19T19:07:19.972Z,18.85
2022-08-19T19:09:25.041Z,18.81
2022-08-19T19:11:29.959Z,18.86
2022-08-19T19:13:35.662Z,18.90
2022-08-19T19:15:39.511Z,18.95
2022-08-19T19:17:42.144Z,18.83
2022-08-19T19:19:45.624Z,18.81
2022-08-19T19:21:49.924Z,18.80
2022-08-19T19:23:53.942Z,18.80
2022-08-19T19:25:56.632Z,18.86
2022-08-19T19:27:59.421Z,18.87
2022-08-19T19:30:03.613Z,18.86
2022-08-19T19:32:08.244Z,18.81
2022-08-19T19:34:28.843Z,18.80
2022-08-19T19:36:32.683Z,18.78
2022-08-19T19:38:35.414Z,18.79
2022-08-19T19:40:38.112Z,18.72
2022-08-19T19:42:40.772Z,18.77
2022-08-19T19:44:48.037Z,18.84
2022-08-19T19:46:55.699Z,18.82
2022-08-19T19:49:00.327Z,18.83
2022-08-19T19:51:04.910Z,18.85
2022-08-19T19:53:07.650Z,18.93
2022-08-19T19:55:11.720Z,18.94
2022-08-19T19:57:15.455Z,18.94
2022-08-19T19:59:18.725Z,18.92
2022-08-19T20:01:24.698Z,18.98
2022-08-19T20:03:30.839Z,19.08
2022-08-19T20:05:33.555Z,19.04
2022-08-19T20:07:54.173Z,19.04
2022-08-19T20:10:00.195Z,19.06
2022-08-19T20:12:03.124Z,19.00
2022-08-19T20:14:11.637Z,19.08
2022-08-19T20:16:15.215Z,19.12
2022-08-19T20:18:18.968Z,19.08
2022-08-19T20:20:23.659Z,19.07
2022-08-19T20:22:26.571Z,19.09
2022-08-19T20:24:32.360Z,19.12
2022-08-19T20:26:35.207Z,19.12
2022-08-19T20:28:38.067Z,19.22
2022-08-19T20:30:48.104Z,19.12
2022-08-19T20:32:51.588Z,19.09
2022-08-19T20:34:54.357Z,19.13
2022-08-19T20:36:58.455Z,19.10
2022-08-19T20:39:01.899Z,19.08
2022-08-19T20:41:04.942Z,19.09
2022-08-19T20:43:09.868Z,19.06
2022-08-19T20:45:29.411Z,19.19
2022-08-19T20:47:36.026Z,19.17
2022-08-19T20:49:39.125Z,19.19
2022-08-19T20:51:41.922Z,19.23
2022-08-19T20:53:46.037Z,19.24
2022-08-19T20:55:50.067Z,19.29
2022-08-19T20:57:52.761Z,19.29
2022-08-19T20:59:55.451Z,19.25
2022-08-19T21:01:58.209Z,19.31
2022-08-19T21:04:00.846Z,19.37
2022-08-19T21:06:04.681Z,19.35
2022-08-19T21:08:09.068Z,19.48
2022-08-19T21:10:13.150Z,19.51
2022-08-19T21:12:15.879Z,19.42
2022-08-19T21:14:19.072Z,19.47
2022-08-19T21:16:22.005Z,19.55
2022-08-19T21:18:26.880Z,19.59
2022-08-19T21:20:29.835Z,19.63
2022-08-19T21:22:32.544Z,19.65
2022-08-19T21:24:35.242Z,19.70
2022-08-19T21:26:39.397Z,19.73
2022-08-19T21:28:42.098Z,19.77
2022-08-19T21:30:44.827Z,19.86
2022-08-19T21:32:52.279Z,19.90
2022-08-19T21:34:55.408Z,19.89
2022-08-19T21:36:58.056Z,19.73
2022-08-19T21:39:00.683Z,19.70
2022-08-19T21:41:06.083Z,19.72
2022-08-19T21:43:10.545Z,19.76
2022-08-19T21:45:17.314Z,19.83
2022-08-19T21:47:21.269Z,19.93
2022-08-19T21:49:24.230Z,19.94
2022-08-19T21:51:27.189Z,19.92
2022-08-19T21:53:31.417Z,19.93
2022-08-19T21:55:37.352Z,19.93
2022-08-19T21:57:41.413Z,19.86
2022-08-19T21:59:45.592Z,20.00
2022-08-19T22:01:54.058Z,20.15
2022-08-19T22:04:01.632Z,20.19
2022-08-19T22:06:04.618Z,20.18
2022-08-19T22:08:07.287Z,20.18
2022-08-19T22:10:11.946Z,20.19
2022-08-19T22:12:23.411Z,20.21
2022-08-19T22:14:26.425Z,20.15
2022-08-19T22:16:30.449Z,20.19
2022-08-19T22:18:34.636Z,20.18
2022-08-19T22:20:37.943Z,20.14
2022-08-19T22:22:47.196Z,20.20
2022-08-19T22:24:49.901Z,20.19
2022-08-19T22:26:52.589Z,20.16
2022-08-19T22:28:55.390Z,20.27
2022-08-19T22:30:59.402Z,20.24
2022-08-19T22:33:07.223Z,20.23
2022-08-19T22:35:10.212Z,20.23
2022-08-19T22:37:13.957Z,20.29
2022-08-19T22:39:16.660Z,20.32
2022-08-19T22:41:19.363Z,20.28
2022-08-19T22:43:25.036Z,20.29
2022-08-19T22:45:29.097Z,20.30
2022-08-19T22:47:32.262Z,20.35
2022-08-19T22:49:38.304Z,20.37
2022-08-19T22:51:59.484Z,20.33
2022-08-19T22:54:02.952Z,20.35
2022-08-19T22:56:09.881Z,20.32
2022-08-19T22:58:15.857Z,20.33
2022-08-19T23:00:30.794Z,20.31
2022-08-19T23:02:38.190Z,20.35
2022-08-19T23:04:42.198Z,20.27
2022-08-19T23:06:44.902Z,20.27
2022-08-19T23:08:47.608Z,20.28
2022-08-19T23:10:50.375Z,20.25
2022-08-19T23:12:54.045Z,20.27
2022-08-19T23:14:58.492Z,20.27
2022-08-19T23:17:01.370Z,20.24
2022-08-19T23:19:04.411Z,20.20
2022-08-19T23:21:09.570Z,20.19
2022-08-19T23:23:14.405Z,20.18
2022-08-19T23:25:21.371Z,20.13
2022-08-19T23:27:41.446Z,20.17
2022-08-19T23:30:01.787Z,20.14
2022-08-19T23:32:07.035Z,20.09
2022-08-19T23:34:10.017Z,19.99
2022-08-19T23:36:16.779Z,20.03
2022-08-19T23:38:22.636Z,19.99
2022-08-19T23:40:25.424Z,19.94
2022-08-19T23:42:28.830Z,19.86
2022-08-19T23:44:31.604Z,19.85
2022-08-19T23:46:50.531Z,19.78
2022-08-19T23:48:59.680Z,19.73
2022-08-19T23:51:04.151Z,19.77
2022-08-19T23:53:09.209Z,19.68
2022-08-19T23:55:16.614Z,19.58
2022-08-19T23:57:19.285Z,19.54
2022-08-19T23:59:22.526Z,19.46
